• Join FlightAware (Why Join?)
  • Login
  • US Flag 
07:04PM EST


 

Airport Tracker/Info


-or-


 

Live Flight TrackerFlight Track Log ✈ EJA929 ✈ 17-May-2014 ✈ KMCO - KPBI

Flight Track Log - Related Links

Times and Time Zones

All times are in EDT time to prevent confusion due to time zone crossing. See the EJA929 flight status page for this flight to view local times or setup timezone preferences in your user account.

Time Position Orientation Groundspeed Altitude Reporting Facility
EDT Latitude Longitude Course Direction KTS MPH feet Rate Location/Type
09:04AM 28.4500 -81.3167 53° Northeast 161 185 1,000  Level Orlando TRACON
09:04AM 28.4833 -81.2667 53° Northeast 246 283 4,100 2,940 Climbing Orlando TRACON
09:05AM 28.5167 -81.2000 60° Northeast 256 295 6,700 3,000 Climbing Orlando TRACON
09:06AM 28.5000 -81.1167 103° East 282 325 10,200 2,700 Climbing Orlando TRACON
09:07AM 28.4667 -81.0333 114° Southeast 337 388 12,200 1,260 Climbing Orlando TRACON
09:10AM 28.3100 -80.8108 129° Southeast 407 468 14,800 780 Climbing Miami Center
09:11AM 28.1914 -80.7175 145° Southeast 422 486 15,000 60 Climbing Miami Center
09:12AM 28.0853 -80.6469 150° Southeast 425 489 15,000  Level Miami Center
09:13AM 27.9864 -80.5803 149° Southeast 426 490 15,000  Level Miami Center
09:14AM 27.8778 -80.5081 150° Southeast 427 491 15,000  Level Miami Center
09:15AM 27.7700 -80.4356 149° Southeast 427 491 15,000 -540 Level Miami Center
09:16AM 27.6614 -80.3631 149° Southeast 430 495 14,000 -960 Descending Miami Center
09:17AM 27.5614 -80.2961 149° Southeast 431 496 13,100 -1,200 Descending Miami Center
09:18AM 27.4569 -80.2267 149° Southeast 420 483 11,600 -1,500 Descending Miami Center
09:19AM 27.3669 -80.1675 150° Southeast 356 410 10,100 -780 Descending Miami Center
09:20AM 27.2864 -80.1333 159° South 302 348 10,000 -360 Descending Miami Center
09:21AM 27.2056 -80.1089 165° South 291 335 9,400 -840 Descending Miami Center
09:22AM 27.1364 -80.0747 156° South 282 325 8,300 -1,320 Descending Miami Center
09:23AM 27.0606 -80.0364 156° South 283 326 6,700 -1,620 Descending Miami Center
09:24AM 26.9881 -80.0006 156° South 275 316 5,100 -1,320 Descending Miami Center
09:25AM 26.9125 -79.9658 158° South 277 319 4,100 -540 Descending Miami Center
09:26AM 26.8467 -79.9381 159° South 257 296 4,000 -540 Descending Miami Center
09:27AM 26.7883 -79.9197 164° South 212 244 3,100 -960 Descending Miami Center
09:29AM 26.7303 -79.9172 178° South 211 243 2,100 -840 Descending Miami Center
09:30AM 26.6778 -79.9411 202° Southwest 212 244 1,500 -300 Descending Miami Center
09:31AM 26.6781 -80.0006 270° West 195 224 1,500 -360 Level Miami Center
09:32AM 26.6803 -80.0444 273° West 178 205 800 -720 Descending Miami Center
09:34AM 26.6667 -80.0833 270° West  Level FlightAware Approximate
09:41AM 26.6832 -80.0956 270° West  Level Estimated